createdAt,value
2023-05-05T00:00:13.038Z,53.05
2023-05-05T00:01:13.089Z,52.97
2023-05-05T00:02:13.223Z,52.72
2023-05-05T00:03:13.202Z,52.47
2023-05-05T00:04:13.205Z,51.98
2023-05-05T00:05:13.181Z,51.68
2023-05-05T00:06:13.631Z,51.45
2023-05-05T00:07:13.271Z,51.52
2023-05-05T00:08:13.358Z,51.28
2023-05-05T00:09:13.434Z,51.02
2023-05-05T00:10:13.443Z,51.01
2023-05-05T00:11:13.555Z,51.00
2023-05-05T00:12:13.517Z,51.02
2023-05-05T00:13:13.700Z,51.40
2023-05-05T00:14:13.631Z,51.46
2023-05-05T00:15:13.689Z,51.31
2023-05-05T00:16:13.747Z,51.13
2023-05-05T00:17:13.827Z,51.15
2023-05-05T00:18:13.832Z,51.25
2023-05-05T00:19:13.847Z,51.33
2023-05-05T00:20:13.895Z,51.22
2023-05-05T00:21:13.880Z,51.12
2023-05-05T00:22:13.898Z,51.86
2023-05-05T00:23:13.925Z,51.90
2023-05-05T00:24:13.990Z,51.72
2023-05-05T00:25:13.985Z,51.68
2023-05-05T00:26:14.006Z,51.67
2023-05-05T00:27:14.016Z,51.46
2023-05-05T00:28:14.050Z,51.29
2023-05-05T00:29:14.028Z,51.14
2023-05-05T00:30:14.076Z,51.02
2023-05-05T00:31:14.246Z,50.98
2023-05-05T00:32:14.147Z,50.95
2023-05-05T00:33:14.140Z,50.68
2023-05-05T00:34:14.157Z,50.73
2023-05-05T00:35:14.172Z,50.81
2023-05-05T00:36:14.213Z,50.81
2023-05-05T00:37:14.166Z,50.88
2023-05-05T00:38:14.180Z,50.89
2023-05-05T00:39:14.156Z,51.19
2023-05-05T00:40:14.188Z,51.76
2023-05-05T00:41:14.219Z,51.69
2023-05-05T00:42:14.219Z,51.66
2023-05-05T00:43:14.218Z,51.68
2023-05-05T00:44:14.350Z,51.61
2023-05-05T00:45:14.322Z,51.50
2023-05-05T00:46:14.406Z,51.43
2023-05-05T00:47:14.405Z,51.37
2023-05-05T00:48:14.473Z,51.45
2023-05-05T00:49:14.532Z,51.72
2023-05-05T00:50:14.476Z,51.66
2023-05-05T00:51:14.580Z,51.86
2023-05-05T00:52:14.593Z,52.10
2023-05-05T00:53:14.663Z,51.96
2023-05-05T00:54:14.665Z,51.88
2023-05-05T00:55:14.698Z,51.97
2023-05-05T00:56:14.711Z,52.04
2023-05-05T00:57:14.789Z,52.11
2023-05-05T00:58:14.870Z,52.14
2023-05-05T00:59:14.820Z,51.97
2023-05-05T01:00:14.880Z,52.03
2023-05-05T01:01:14.994Z,52.28
2023-05-05T01:02:15.010Z,52.57
2023-05-05T01:03:15.031Z,52.73
2023-05-05T01:04:15.030Z,52.62
2023-05-05T01:05:15.113Z,52.90
2023-05-05T01:06:15.122Z,53.07
2023-05-05T01:07:15.052Z,52.91
2023-05-05T01:08:15.118Z,52.60
2023-05-05T01:09:15.186Z,52.65
2023-05-05T01:10:20.239Z,52.84
2023-05-05T01:11:16.184Z,53.03
2023-05-05T01:12:15.625Z,53.30
2023-05-05T01:13:15.236Z,53.22
2023-05-05T01:14:15.147Z,52.96
2023-05-05T01:15:15.192Z,52.71
2023-05-05T01:16:15.182Z,52.46
2023-05-05T01:17:15.161Z,52.51
2023-05-05T01:18:15.121Z,52.86
2023-05-05T01:19:15.150Z,53.33
2023-05-05T01:20:15.160Z,53.08
2023-05-05T01:21:15.131Z,53.06
2023-05-05T01:22:15.163Z,53.24
2023-05-05T01:23:15.268Z,53.77
2023-05-05T01:24:15.135Z,54.10
2023-05-05T01:25:15.102Z,54.12
2023-05-05T01:26:15.127Z,54.07
2023-05-05T01:27:15.644Z,53.76
2023-05-05T01:28:15.212Z,53.84
2023-05-05T01:29:15.243Z,54.03
2023-05-05T01:30:15.240Z,54.03
2023-05-05T01:31:15.358Z,54.38
2023-05-05T01:32:15.337Z,54.44
2023-05-05T01:33:15.337Z,54.42
2023-05-05T01:34:15.379Z,54.32
2023-05-05T01:35:15.395Z,54.38
2023-05-05T01:36:15.396Z,54.79
2023-05-05T01:37:15.475Z,55.17
2023-05-05T01:38:15.498Z,55.62
2023-05-05T01:39:15.552Z,55.59
2023-05-05T01:40:15.565Z,55.40
2023-05-05T01:41:15.559Z,55.02
2023-05-05T01:42:15.603Z,54.71
2023-05-05T01:43:15.592Z,54.46
2023-05-05T01:44:15.577Z,54.44
2023-05-05T01:45:15.646Z,54.50
2023-05-05T01:46:15.762Z,54.47
2023-05-05T01:47:16.113Z,54.58
2023-05-05T01:48:15.840Z,54.48
2023-05-05T01:49:15.910Z,54.34
2023-05-05T01:50:15.932Z,54.05
2023-05-05T01:51:15.953Z,53.96
2023-05-05T01:52:16.008Z,54.27
2023-05-05T01:53:16.021Z,54.52
2023-05-05T01:54:16.070Z,54.57
2023-05-05T01:55:16.100Z,53.99
2023-05-05T01:56:16.132Z,53.64
2023-05-05T01:57:16.146Z,53.91
2023-05-05T01:58:16.186Z,54.45
2023-05-05T01:59:16.215Z,54.45
2023-05-05T02:00:17.153Z,54.14
2023-05-05T02:01:16.309Z,54.19
2023-05-05T02:02:16.345Z,53.85
2023-05-05T02:03:16.401Z,53.67
2023-05-05T02:04:16.346Z,54.23
2023-05-05T02:05:16.417Z,54.55
2023-05-05T02:06:16.469Z,53.94
2023-05-05T02:07:16.449Z,53.90
2023-05-05T02:08:16.628Z,53.51
2023-05-05T02:09:16.576Z,53.54
2023-05-05T02:10:16.599Z,53.94
2023-05-05T02:11:16.681Z,53.92
2023-05-05T02:12:16.711Z,54.08
2023-05-05T02:13:16.862Z,54.17
2023-05-05T02:14:16.717Z,54.42
2023-05-05T02:15:16.742Z,55.01
2023-05-05T02:16:16.974Z,54.89
2023-05-05T02:17:16.842Z,54.57
2023-05-05T02:18:16.848Z,54.40
2023-05-05T02:19:16.930Z,54.78
2023-05-05T02:20:16.961Z,54.71
2023-05-05T02:21:16.964Z,54.61
2023-05-05T02:22:17.010Z,54.60
2023-05-05T02:23:16.980Z,54.89
2023-05-05T02:24:17.008Z,54.98
2023-05-05T02:25:17.103Z,54.84
2023-05-05T02:26:17.152Z,54.88
2023-05-05T02:27:17.182Z,54.72
2023-05-05T02:28:17.206Z,54.53
2023-05-05T02:29:17.307Z,54.36
2023-05-05T02:30:17.283Z,54.18
2023-05-05T02:31:17.422Z,53.96
2023-05-05T02:32:17.365Z,53.89
2023-05-05T02:33:17.436Z,54.12
2023-05-05T02:34:17.455Z,54.42
2023-05-05T02:35:17.491Z,54.50
2023-05-05T02:36:17.477Z,54.45
2023-05-05T02:37:17.511Z,55.06
2023-05-05T02:38:17.596Z,55.92
2023-05-05T02:39:17.546Z,56.28
2023-05-05T02:40:17.512Z,55.89
2023-05-05T02:41:17.545Z,55.72
2023-05-05T02:42:17.554Z,55.37
2023-05-05T02:43:17.666Z,55.42
2023-05-05T02:44:17.572Z,55.54
2023-05-05T02:45:17.628Z,55.64
2023-05-05T02:46:17.787Z,55.45
2023-05-05T02:47:17.697Z,55.31
2023-05-05T02:48:17.706Z,55.25
2023-05-05T02:49:17.715Z,55.18
2023-05-05T02:50:17.732Z,55.19
2023-05-05T02:51:18.123Z,55.48
2023-05-05T02:52:17.778Z,55.65
2023-05-05T02:53:17.813Z,55.58
2023-05-05T02:54:17.788Z,55.66
2023-05-05T02:55:17.845Z,56.03
2023-05-05T02:56:17.859Z,56.42
2023-05-05T02:57:17.924Z,57.28
2023-05-05T02:58:17.949Z,58.01
2023-05-05T02:59:17.959Z,57.88
2023-05-05T03:00:17.990Z,57.81
2023-05-05T03:01:18.073Z,58.08
2023-05-05T03:02:18.068Z,57.98
2023-05-05T03:03:18.221Z,58.33
2023-05-05T03:04:18.167Z,58.25
2023-05-05T03:05:18.177Z,58.11
2023-05-05T03:06:18.202Z,58.16
2023-05-05T03:07:18.214Z,58.08
2023-05-05T03:08:18.229Z,57.82
2023-05-05T03:09:18.295Z,57.69
2023-05-05T03:10:18.309Z,57.76
2023-05-05T03:11:18.289Z,57.72
2023-05-05T03:12:18.360Z,57.64
2023-05-05T03:13:18.421Z,57.53
2023-05-05T03:14:18.500Z,57.31
2023-05-05T03:15:18.512Z,57.49
2023-05-05T03:16:18.594Z,57.37
2023-05-05T03:17:18.545Z,57.11
2023-05-05T03:18:18.576Z,56.69
2023-05-05T03:19:18.597Z,56.65
2023-05-05T03:20:18.675Z,56.23
2023-05-05T03:21:18.673Z,55.86
2023-05-05T03:22:18.742Z,55.71
2023-05-05T03:23:18.756Z,55.50
2023-05-05T03:24:18.783Z,55.48
2023-05-05T03:25:18.812Z,55.57
2023-05-05T03:26:18.882Z,55.61
2023-05-05T03:27:18.883Z,55.88
2023-05-05T03:28:18.921Z,56.21
2023-05-05T03:29:18.936Z,56.73
2023-05-05T03:30:18.991Z,57.05
2023-05-05T03:31:19.070Z,57.28
2023-05-05T03:32:19.035Z,57.41
2023-05-05T03:33:19.046Z,57.26
2023-05-05T03:34:19.073Z,56.85
2023-05-05T03:35:19.109Z,56.70
2023-05-05T03:36:19.179Z,56.60
2023-05-05T03:37:19.172Z,56.58
2023-05-05T03:38:19.244Z,56.32
2023-05-05T03:39:19.339Z,56.50
2023-05-05T03:40:19.441Z,56.59
2023-05-05T03:41:19.454Z,56.82
2023-05-05T03:42:19.386Z,56.74
2023-05-05T03:43:19.383Z,56.63
2023-05-05T03:44:19.401Z,56.53
2023-05-05T03:45:19.417Z,56.16
2023-05-05T03:46:19.484Z,56.29
2023-05-05T03:47:19.504Z,56.33
2023-05-05T03:48:19.478Z,56.39
2023-05-05T03:49:19.685Z,56.45
2023-05-05T03:50:19.572Z,56.64
2023-05-05T03:51:20.156Z,56.75
2023-05-05T03:52:19.658Z,56.22
2023-05-05T03:53:19.702Z,56.01
2023-05-05T03:54:19.759Z,56.13
2023-05-05T03:55:19.757Z,56.40
2023-05-05T03:56:19.794Z,56.93
2023-05-05T03:57:19.850Z,57.28
2023-05-05T03:58:19.895Z,57.23
2023-05-05T03:59:19.910Z,57.18
2023-05-05T04:00:19.909Z,57.33
2023-05-05T04:01:19.974Z,57.60
2023-05-05T04:02:20.077Z,58.04
2023-05-05T04:03:20.147Z,58.32
2023-05-05T04:04:20.119Z,58.96
2023-05-05T04:05:20.154Z,59.09
2023-05-05T04:06:20.183Z,58.99
2023-05-05T04:07:20.192Z,58.96
2023-05-05T04:08:20.269Z,58.93
2023-05-05T04:09:20.295Z,58.81
2023-05-05T04:10:20.371Z,58.97
2023-05-05T04:11:20.396Z,59.23
2023-05-05T04:12:20.402Z,59.09
2023-05-05T04:13:20.392Z,59.03
2023-05-05T04:14:20.406Z,59.06
2023-05-05T04:15:20.413Z,59.12
2023-05-05T04:16:20.492Z,59.03
2023-05-05T04:17:20.498Z,59.16
2023-05-05T04:18:20.540Z,59.29
2023-05-05T04:19:20.544Z,59.10
2023-05-05T04:20:20.604Z,58.76
2023-05-05T04:21:20.673Z,58.57
2023-05-05T04:22:20.668Z,58.20
2023-05-05T04:23:20.705Z,57.89
2023-05-05T04:24:20.718Z,57.62
2023-05-05T04:25:20.730Z,57.30
2023-05-05T04:26:20.760Z,57.12
2023-05-05T04:27:20.786Z,57.01
2023-05-05T04:28:21.749Z,57.14
2023-05-05T04:29:20.823Z,56.98
2023-05-05T04:30:20.889Z,56.94
2023-05-05T04:31:21.015Z,57.35
2023-05-05T04:32:21.002Z,57.59
2023-05-05T04:33:21.048Z,57.89
2023-05-05T04:34:21.066Z,58.18
2023-05-05T04:35:21.078Z,58.02
2023-05-05T04:36:21.127Z,58.02
2023-05-05T04:37:21.172Z,58.02
2023-05-05T04:38:21.286Z,57.80
2023-05-05T04:39:21.256Z,57.34
2023-05-05T04:40:21.252Z,56.96
2023-05-05T04:41:21.293Z,56.72
2023-05-05T04:42:21.366Z,56.50
2023-05-05T04:43:21.362Z,56.89
2023-05-05T04:44:21.398Z,57.22
2023-05-05T04:45:21.426Z,57.30
2023-05-05T04:46:21.744Z,57.41
2023-05-05T04:47:21.509Z,57.38
2023-05-05T04:48:21.529Z,57.12
2023-05-05T04:49:22.173Z,57.09
2023-05-05T04:50:21.619Z,57.22
2023-05-05T04:51:21.643Z,57.49
2023-05-05T04:52:21.663Z,57.37
2023-05-05T04:53:21.687Z,57.18
2023-05-05T04:54:21.700Z,57.13
2023-05-05T04:55:21.714Z,57.16
2023-05-05T04:56:21.820Z,56.93
2023-05-05T04:57:21.827Z,56.69
2023-05-05T04:58:21.797Z,56.47
2023-05-05T04:59:21.833Z,56.39
2023-05-05T05:00:21.932Z,56.44
2023-05-05T05:01:22.060Z,56.44
2023-05-05T05:02:22.107Z,56.22
2023-05-05T05:03:22.140Z,55.91
2023-05-05T05:04:22.080Z,55.74
2023-05-05T05:05:22.108Z,55.77
2023-05-05T05:06:22.154Z,55.60
2023-05-05T05:07:22.187Z,55.59
2023-05-05T05:08:22.716Z,55.92
2023-05-05T05:09:23.217Z,55.92
2023-05-05T05:10:22.292Z,56.14
2023-05-05T05:11:22.338Z,56.47
2023-05-05T05:12:22.338Z,56.53
2023-05-05T05:13:22.812Z,56.59
2023-05-05T05:14:22.428Z,56.41
2023-05-05T05:15:22.438Z,56.37
2023-05-05T05:16:23.248Z,56.77
2023-05-05T05:17:22.582Z,56.47
2023-05-05T05:18:22.560Z,55.86
2023-05-05T05:19:22.569Z,55.65
2023-05-05T05:20:22.634Z,56.83
2023-05-05T05:21:22.694Z,56.55
2023-05-05T05:22:22.772Z,56.03
2023-05-05T05:23:22.707Z,55.83
2023-05-05T05:24:22.761Z,56.14
2023-05-05T05:25:22.800Z,56.11
2023-05-05T05:26:22.803Z,56.08
2023-05-05T05:27:22.875Z,56.26
2023-05-05T05:28:22.891Z,56.15
2023-05-05T05:29:22.910Z,56.38
2023-05-05T05:30:22.934Z,56.14
2023-05-05T05:31:23.033Z,56.48
2023-05-05T05:32:22.987Z,56.64
2023-05-05T05:33:23.137Z,57.22
2023-05-05T05:34:23.090Z,56.85
2023-05-05T05:35:23.030Z,57.23
2023-05-05T05:36:23.216Z,57.37
2023-05-05T05:37:23.071Z,56.66
2023-05-05T05:38:23.091Z,56.51
2023-05-05T05:39:23.112Z,57.15
2023-05-05T05:40:23.731Z,56.83
2023-05-05T05:41:23.204Z,57.00
2023-05-05T05:42:23.212Z,56.61
2023-05-05T05:43:23.275Z,56.73
2023-05-05T05:44:23.395Z,56.22
2023-05-05T05:45:23.370Z,55.86
2023-05-05T05:46:23.347Z,56.45
2023-05-05T05:47:23.382Z,56.82
2023-05-05T05:48:23.317Z,56.59
2023-05-05T05:49:23.389Z,56.21
2023-05-05T05:50:23.381Z,55.74
2023-05-05T05:51:23.462Z,56.10
2023-05-05T05:52:23.447Z,56.14
2023-05-05T05:53:23.492Z,56.86
2023-05-05T05:54:23.545Z,56.92
2023-05-05T05:55:23.543Z,57.04
2023-05-05T05:56:23.612Z,57.07
2023-05-05T05:57:23.589Z,57.28
2023-05-05T05:58:23.604Z,57.41
2023-05-05T05:59:23.648Z,56.89
2023-05-05T06:00:23.692Z,56.62
2023-05-05T06:01:23.713Z,56.61
2023-05-05T06:02:23.719Z,56.07
2023-05-05T06:03:23.893Z,56.95
2023-05-05T06:04:23.848Z,56.86
2023-05-05T06:05:23.839Z,55.18
2023-05-05T06:06:24.218Z,54.26
2023-05-05T06:07:23.970Z,54.23
2023-05-05T06:08:25.686Z,54.60
2023-05-05T06:09:24.017Z,55.67
2023-05-05T06:10:27.770Z,55.11
2023-05-05T06:11:24.128Z,54.84
2023-05-05T06:12:24.033Z,53.47
2023-05-05T06:13:23.994Z,53.23
2023-05-05T06:14:24.020Z,53.50
2023-05-05T06:15:24.020Z,52.97
2023-05-05T06:16:24.104Z,53.33
2023-05-05T06:17:23.972Z,52.53
2023-05-05T06:18:24.288Z,53.10
2023-05-05T06:19:24.368Z,51.69
2023-05-05T06:20:23.970Z,53.50
2023-05-05T06:21:24.817Z,51.88
2023-05-05T06:22:24.046Z,52.94
2023-05-05T06:23:23.942Z,52.58
2023-05-05T06:24:23.946Z,51.36
2023-05-05T06:25:23.966Z,53.43
2023-05-05T06:26:23.939Z,53.69
2023-05-05T06:27:23.933Z,52.37
2023-05-05T06:28:24.388Z,53.33
2023-05-05T06:29:23.922Z,53.51
2023-05-05T06:30:23.893Z,54.22
2023-05-05T06:31:23.925Z,53.37
2023-05-05T06:32:24.014Z,54.59
2023-05-05T06:33:23.869Z,54.36
2023-05-05T06:34:23.879Z,54.60
2023-05-05T06:35:23.852Z,53.37
2023-05-05T06:36:24.050Z,54.01
2023-05-05T06:37:24.799Z,52.02
2023-05-05T06:38:24.711Z,51.68
2023-05-05T06:39:23.866Z,50.55
2023-05-05T06:40:23.921Z,51.08
2023-05-05T06:41:23.805Z,50.88
2023-05-05T06:42:23.831Z,50.75
2023-05-05T06:43:24.750Z,50.92
2023-05-05T06:44:23.798Z,48.96
2023-05-05T06:45:23.780Z,49.46
2023-05-05T06:46:23.826Z,49.80
2023-05-05T06:47:24.247Z,50.97
2023-05-05T06:48:23.776Z,48.86
2023-05-05T06:49:23.868Z,48.67
2023-05-05T06:50:23.972Z,49.22
2023-05-05T06:51:23.937Z,49.30
2023-05-05T06:52:24.064Z,50.60
2023-05-05T06:53:24.095Z,50.46
2023-05-05T06:54:24.091Z,48.96
2023-05-05T06:55:24.167Z,47.92
2023-05-05T06:56:24.192Z,47.42
2023-05-05T06:57:24.263Z,47.17
2023-05-05T06:58:24.272Z,47.51
2023-05-05T06:59:24.300Z,48.05
2023-05-05T07:00:24.408Z,49.91
2023-05-05T07:01:24.638Z,48.26
2023-05-05T07:02:26.662Z,47.88
2023-05-05T07:03:24.601Z,48.19
2023-05-05T07:04:24.657Z,47.36
2023-05-05T07:05:24.675Z,47.50
2023-05-05T07:06:25.245Z,47.32
2023-05-05T07:07:24.861Z,46.65
2023-05-05T07:08:25.133Z,46.47
2023-05-05T07:09:24.904Z,46.35
2023-05-05T07:10:24.907Z,46.71
2023-05-05T07:11:24.978Z,47.44
2023-05-05T07:12:25.044Z,48.02
2023-05-05T07:13:25.069Z,47.19
2023-05-05T07:14:25.087Z,46.26
2023-05-05T07:15:29.112Z,45.69
2023-05-05T07:16:25.229Z,44.30
2023-05-05T07:17:25.273Z,44.61
2023-05-05T07:18:25.120Z,45.23
2023-05-05T07:19:25.231Z,45.26
2023-05-05T07:20:25.211Z,44.74
2023-05-05T07:21:25.114Z,45.01
2023-05-05T07:22:25.133Z,43.66
2023-05-05T07:23:25.103Z,43.08
2023-05-05T07:24:25.068Z,43.85
2023-05-05T07:25:25.065Z,44.41
2023-05-05T07:26:25.109Z,43.90
2023-05-05T07:27:25.080Z,45.61
2023-05-05T07:28:25.094Z,45.10
2023-05-05T07:29:25.208Z,45.10
2023-05-05T07:30:25.530Z,44.78
2023-05-05T07:31:25.158Z,44.07
2023-05-05T07:32:25.118Z,44.16
2023-05-05T07:33:25.036Z,43.81
2023-05-05T07:34:25.255Z,42.82
2023-05-05T07:35:25.793Z,44.21
2023-05-05T07:36:25.089Z,43.32
2023-05-05T07:37:25.018Z,43.53
2023-05-05T07:38:25.087Z,42.34
2023-05-05T07:39:25.038Z,43.10
2023-05-05T07:40:25.043Z,43.00
2023-05-05T07:41:25.099Z,43.63
2023-05-05T07:42:25.149Z,42.80
2023-05-05T07:43:25.216Z,43.73
2023-05-05T07:44:25.225Z,44.87
2023-05-05T07:45:25.362Z,41.95
2023-05-05T07:46:25.413Z,42.46
2023-05-05T07:47:25.335Z,43.46
2023-05-05T07:48:25.483Z,43.23
2023-05-05T07:49:25.374Z,41.93
2023-05-05T07:50:26.246Z,41.37
2023-05-05T07:51:25.402Z,41.72
2023-05-05T07:52:43.708Z,41.52
2023-05-05T07:53:27.395Z,40.02
2023-05-05T07:54:25.417Z,41.53
2023-05-05T07:55:25.388Z,42.34
2023-05-05T07:56:25.407Z,41.38
2023-05-05T07:57:25.735Z,41.77
2023-05-05T07:58:25.397Z,40.96
2023-05-05T07:59:25.462Z,39.49
2023-05-05T08:00:25.447Z,39.31
2023-05-05T08:01:25.407Z,40.19
2023-05-05T08:02:25.499Z,39.34
2023-05-05T08:03:25.663Z,39.70
2023-05-05T08:04:25.537Z,39.52
2023-05-05T08:05:25.588Z,38.86
2023-05-05T08:06:25.506Z,40.24
2023-05-05T08:07:25.518Z,40.67
2023-05-05T08:08:25.532Z,39.84
2023-05-05T08:09:25.603Z,40.30
2023-05-05T08:10:25.628Z,38.82
2023-05-05T08:11:26.800Z,39.14
2023-05-05T08:12:25.810Z,40.34
2023-05-05T08:13:25.924Z,39.75
2023-05-05T08:14:25.796Z,38.60
2023-05-05T08:15:26.031Z,39.22
2023-05-05T08:16:26.000Z,39.87
2023-05-05T08:17:25.972Z,39.63
2023-05-05T08:18:26.130Z,38.89
2023-05-05T08:19:29.292Z,37.85
2023-05-05T08:20:26.794Z,37.70
2023-05-05T08:21:26.789Z,38.23
2023-05-05T08:22:26.066Z,40.09
2023-05-05T08:23:26.037Z,38.99
2023-05-05T08:24:25.972Z,38.39
2023-05-05T08:25:26.033Z,38.05
2023-05-05T08:26:26.633Z,39.48
2023-05-05T08:27:26.249Z,38.36
2023-05-05T08:28:25.961Z,36.86
2023-05-05T08:29:26.929Z,37.83
2023-05-05T08:30:25.959Z,38.04
2023-05-05T08:31:26.021Z,36.83
2023-05-05T08:32:27.253Z,37.39
2023-05-05T08:33:25.992Z,38.50
2023-05-05T08:34:26.139Z,37.99
2023-05-05T08:35:26.119Z,36.32
2023-05-05T08:36:26.157Z,36.29
2023-05-05T08:37:26.282Z,36.16
2023-05-05T08:38:26.204Z,35.38
2023-05-05T08:39:26.272Z,37.09
2023-05-05T08:40:26.337Z,36.02
2023-05-05T08:41:26.371Z,35.04
2023-05-05T08:42:37.066Z,33.85
2023-05-05T08:43:27.395Z,32.92
2023-05-05T08:44:27.441Z,32.36
2023-05-05T08:45:26.384Z,31.54
2023-05-05T08:46:26.366Z,30.97
2023-05-05T08:47:26.383Z,31.18
2023-05-05T08:48:26.382Z,31.25
2023-05-05T08:49:26.348Z,31.06
2023-05-05T08:50:26.366Z,30.56
2023-05-05T08:51:26.404Z,29.85
2023-05-05T08:52:26.468Z,30.41
2023-05-05T08:53:26.368Z,30.11
2023-05-05T08:54:26.364Z,29.52
2023-05-05T08:55:26.464Z,29.79
2023-05-05T08:56:26.372Z,29.73
2023-05-05T08:57:26.404Z,29.56
2023-05-05T08:58:28.786Z,30.08
2023-05-05T08:59:26.643Z,30.05
2023-05-05T09:00:26.714Z,30.18
2023-05-05T09:01:26.732Z,30.36
2023-05-05T09:02:26.892Z,32.93
2023-05-05T09:03:26.831Z,31.74
2023-05-05T09:04:26.892Z,31.25
2023-05-05T09:05:26.887Z,31.48
2023-05-05T09:06:26.894Z,32.85
2023-05-05T09:07:26.913Z,34.85
2023-05-05T09:08:26.962Z,32.00
2023-05-05T09:09:26.938Z,31.75
2023-05-05T09:10:27.923Z,30.70
2023-05-05T09:11:27.061Z,31.72
2023-05-05T09:12:27.301Z,31.24
2023-05-05T09:13:27.216Z,31.52
2023-05-05T09:14:27.285Z,31.78
2023-05-05T09:15:27.230Z,31.72
2023-05-05T09:16:27.277Z,30.83
2023-05-05T09:17:27.475Z,31.49
2023-05-05T09:18:27.359Z,31.21
2023-05-05T09:19:27.759Z,32.36
2023-05-05T09:20:27.376Z,31.52
2023-05-05T09:21:27.487Z,30.76
2023-05-05T09:22:27.430Z,30.63
2023-05-05T09:23:27.408Z,30.94
2023-05-05T09:24:27.487Z,30.34
2023-05-05T09:25:27.503Z,29.23
2023-05-05T09:26:27.519Z,28.97
2023-05-05T09:27:27.580Z,29.27
2023-05-05T09:28:27.532Z,29.46
2023-05-05T09:29:27.570Z,29.35
2023-05-05T09:30:27.586Z,30.00
2023-05-05T09:31:27.715Z,29.59
2023-05-05T09:32:29.202Z,29.85
2023-05-05T09:33:27.746Z,29.57
2023-05-05T09:34:27.759Z,29.58
2023-05-05T09:35:27.701Z,29.69
2023-05-05T09:36:27.631Z,29.65
2023-05-05T09:37:27.643Z,30.00
2023-05-05T09:38:32.295Z,29.85
2023-05-05T09:39:27.631Z,29.99
2023-05-05T09:40:27.794Z,29.67
2023-05-05T09:41:27.664Z,28.74
2023-05-05T09:42:27.604Z,28.87
2023-05-05T09:43:27.624Z,29.50
2023-05-05T09:44:27.793Z,30.27
2023-05-05T09:45:27.856Z,29.61
2023-05-05T09:46:28.347Z,29.63
2023-05-05T09:47:29.843Z,29.28
2023-05-05T09:48:30.051Z,28.78
2023-05-05T09:49:27.844Z,29.26
2023-05-05T09:50:27.873Z,30.25
2023-05-05T09:51:27.907Z,30.42
2023-05-05T09:52:27.975Z,30.77
2023-05-05T09:53:28.301Z,29.98
2023-05-05T09:54:28.134Z,28.56
2023-05-05T09:55:28.120Z,27.88
2023-05-05T09:56:28.124Z,29.17
2023-05-05T09:57:28.303Z,29.47
2023-05-05T09:58:28.281Z,29.50
2023-05-05T09:59:28.173Z,29.61
2023-05-05T10:00:28.201Z,29.57
2023-05-05T10:01:28.304Z,29.44
2023-05-05T10:02:28.325Z,29.02
2023-05-05T10:03:28.362Z,29.17
2023-05-05T10:04:29.544Z,29.63
2023-05-05T10:05:28.567Z,29.86
2023-05-05T10:06:28.442Z,30.07
2023-05-05T10:07:28.423Z,29.12
2023-05-05T10:08:28.449Z,28.70
2023-05-05T10:09:28.492Z,29.21
2023-05-05T10:10:29.079Z,29.19
2023-05-05T10:11:28.500Z,29.45
2023-05-05T10:12:28.849Z,29.04
2023-05-05T10:13:28.746Z,29.28
2023-05-05T10:14:28.582Z,29.35
2023-05-05T10:15:28.606Z,29.80
2023-05-05T10:16:29.152Z,30.19
2023-05-05T10:17:28.635Z,29.98
2023-05-05T10:18:28.740Z,29.57
2023-05-05T10:19:28.786Z,29.77
2023-05-05T10:20:28.767Z,29.62
2023-05-05T10:21:28.905Z,29.68
2023-05-05T10:22:28.859Z,30.45
2023-05-05T10:23:29.802Z,28.22
2023-05-05T10:24:29.820Z,27.89
2023-05-05T10:25:28.986Z,28.12
2023-05-05T10:26:28.961Z,27.42
2023-05-05T10:27:29.208Z,27.64
2023-05-05T10:28:29.813Z,28.41
2023-05-05T10:29:29.042Z,28.24
2023-05-05T10:30:29.252Z,28.24
2023-05-05T10:31:29.174Z,28.36
2023-05-05T10:32:53.504Z,28.50
2023-05-05T10:33:32.256Z,28.60
2023-05-05T10:34:29.570Z,27.98
2023-05-05T10:35:29.137Z,27.79
2023-05-05T10:36:29.194Z,27.51
2023-05-05T10:37:29.142Z,27.67
2023-05-05T10:38:29.134Z,27.93
2023-05-05T10:39:29.126Z,28.66
2023-05-05T10:40:29.106Z,28.49
2023-05-05T10:41:29.078Z,26.65
2023-05-05T10:42:29.080Z,27.50
2023-05-05T10:43:29.314Z,27.67
2023-05-05T10:44:29.351Z,27.13
2023-05-05T10:45:29.178Z,26.17
2023-05-05T10:46:29.097Z,25.48
2023-05-05T10:47:29.854Z,25.38
2023-05-05T10:48:29.856Z,25.97
2023-05-05T10:49:29.320Z,26.39
2023-05-05T10:50:29.186Z,27.21
2023-05-05T10:51:39.209Z,27.63
2023-05-05T10:52:30.015Z,28.66
2023-05-05T10:53:29.029Z,27.63
2023-05-05T10:54:29.032Z,26.66
2023-05-05T10:55:29.019Z,26.35
2023-05-05T10:56:29.004Z,26.69
2023-05-05T10:57:29.013Z,27.18
2023-05-05T10:58:28.996Z,27.01
2023-05-05T10:59:29.003Z,25.53
2023-05-05T11:00:29.147Z,25.97
2023-05-05T11:01:29.112Z,27.08
2023-05-05T11:02:29.003Z,27.56
2023-05-05T11:03:29.025Z,28.57
2023-05-05T11:04:29.007Z,28.25
2023-05-05T11:05:28.974Z,27.86
2023-05-05T11:06:29.024Z,28.41
2023-05-05T11:07:29.055Z,28.42
2023-05-05T11:08:29.084Z,28.04
2023-05-05T11:09:29.154Z,27.30
2023-05-05T11:10:29.265Z,26.35
2023-05-05T11:11:29.231Z,26.53
2023-05-05T11:12:29.324Z,26.79
2023-05-05T11:13:29.573Z,26.46
2023-05-05T11:14:29.804Z,26.36
2023-05-05T11:15:29.315Z,26.23
2023-05-05T11:16:29.533Z,26.24
2023-05-05T11:17:29.570Z,26.29
2023-05-05T11:18:29.352Z,26.00
2023-05-05T11:19:29.438Z,26.50
2023-05-05T11:20:29.476Z,26.06
2023-05-05T11:21:29.584Z,25.90
2023-05-05T11:22:29.616Z,25.78
2023-05-05T11:23:29.822Z,26.00
2023-05-05T11:24:29.728Z,26.19
2023-05-05T11:25:29.712Z,25.66
2023-05-05T11:26:29.766Z,24.02
2023-05-05T11:27:29.835Z,24.78
2023-05-05T11:28:29.946Z,25.12
2023-05-05T11:29:29.897Z,24.88
2023-05-05T11:30:29.958Z,24.71
2023-05-05T11:31:30.039Z,24.83
2023-05-05T11:32:30.142Z,24.94
2023-05-05T11:33:30.088Z,24.96
2023-05-05T11:34:30.242Z,24.93
2023-05-05T11:35:30.147Z,24.91
2023-05-05T11:36:30.159Z,24.76
2023-05-05T11:37:30.242Z,25.05
2023-05-05T11:38:30.267Z,25.56
2023-05-05T11:39:30.321Z,25.42
2023-05-05T11:40:30.446Z,26.04
2023-05-05T11:41:30.388Z,25.49
2023-05-05T11:42:30.502Z,26.93
2023-05-05T11:43:30.501Z,26.59
2023-05-05T11:44:30.489Z,25.11
2023-05-05T11:45:30.496Z,25.85
2023-05-05T11:46:30.553Z,26.23
2023-05-05T11:47:30.575Z,26.23
2023-05-05T11:48:30.542Z,26.16
2023-05-05T11:49:30.550Z,25.34
2023-05-05T11:50:30.534Z,24.80
2023-05-05T11:51:30.544Z,24.73
2023-05-05T11:52:30.574Z,25.36
2023-05-05T11:53:30.631Z,25.51
2023-05-05T11:54:30.619Z,25.68
2023-05-05T11:55:30.628Z,25.44
2023-05-05T11:56:30.645Z,25.06
2023-05-05T11:57:30.681Z,24.68
2023-05-05T11:58:30.695Z,24.57
2023-05-05T11:59:30.761Z,24.49
2023-05-05T12:00:30.810Z,24.77
2023-05-05T12:01:30.835Z,25.46
2023-05-05T12:02:30.953Z,25.38
2023-05-05T12:03:31.118Z,25.80
2023-05-05T12:04:31.064Z,24.66
2023-05-05T12:05:30.951Z,24.55
2023-05-05T12:06:31.077Z,23.69
2023-05-05T12:07:31.059Z,24.48
2023-05-05T12:08:31.072Z,24.24
2023-05-05T12:09:31.080Z,24.95
2023-05-05T12:10:31.116Z,26.42
2023-05-05T12:11:31.165Z,26.40
2023-05-05T12:12:31.173Z,24.66
2023-05-05T12:13:31.249Z,25.34
2023-05-05T12:14:31.229Z,25.81
2023-05-05T12:15:31.440Z,28.91
2023-05-05T12:16:31.357Z,26.87
2023-05-05T12:17:31.307Z,26.28
2023-05-05T12:18:31.360Z,26.61
2023-05-05T12:19:31.367Z,26.25
2023-05-05T12:20:31.512Z,25.92
2023-05-05T12:21:31.467Z,23.27
2023-05-05T12:22:31.540Z,22.15
2023-05-05T12:23:31.559Z,22.08
2023-05-05T12:24:31.722Z,22.37
2023-05-05T12:25:31.643Z,24.08
2023-05-05T12:26:31.697Z,23.50
2023-05-05T12:27:31.712Z,23.24
2023-05-05T12:28:31.754Z,23.12
2023-05-05T12:29:31.766Z,23.77
2023-05-05T12:30:31.907Z,23.92
2023-05-05T12:31:31.812Z,23.18
2023-05-05T12:32:31.850Z,22.88
2023-05-05T12:33:31.852Z,22.97
2023-05-05T12:34:31.873Z,22.48
2023-05-05T12:35:31.933Z,23.87
2023-05-05T12:36:31.934Z,22.75
2023-05-05T12:37:31.934Z,22.69
2023-05-05T12:38:32.351Z,23.07
2023-05-05T12:39:32.055Z,24.01
2023-05-05T12:40:32.088Z,23.46
2023-05-05T12:41:32.160Z,22.25
2023-05-05T12:42:32.177Z,21.80
2023-05-05T12:43:35.399Z,21.67
2023-05-05T12:44:32.172Z,20.96
2023-05-05T12:45:32.191Z,20.76
2023-05-05T12:46:32.277Z,22.17
2023-05-05T12:47:32.312Z,21.10
2023-05-05T12:48:32.144Z,20.97
2023-05-05T12:49:32.149Z,20.64
2023-05-05T12:50:32.168Z,20.95
2023-05-05T12:51:32.137Z,20.36
2023-05-05T12:52:32.154Z,20.56